Glen Elder, KS (67446)

11:08 AM CDT on May 25, 2015 (GMT -0500)
Glen Elder | | Change Station
CLOSE
Current Station
Personal Weather Station
Location: Glen Elder, KS
Elevation: 1453 ft
Nearby Weather Stations

Elev 1453 ft 39.50 °N, 98.31 °W | Updated 17 seconds ago

Mostly Cloudy
Mostly Cloudy
66.2 °F
Feels Like 66.2 °F
N
2.0
Wind Variable Wind from SE
Gusts 3.0 mph

Today
High -- | Low -- °F
--% Chance of Precip.
Yesterday
High -- | Low -- °F
Precip. -- in
6:11 AM 8:49 PM
Waxing Crescent, 49% visible
Pressure 29.78 in
Visibility 10.0 miles
Clouds Mostly Cloudy 2600 ft
Overcast 4100 ft
Dew Point 61 °F
Humidity 83%
Rainfall 0.31 in
Snow Depth Not available.
UV 2 out of 12
Pollen 7.60 out of 12
Air Quality Not available.
Flu Activity No Activity
METAR KCNK 251555Z AUTO 19009G17KT 10SM BKN026 OVC041 19/15 A2980 RMK AO2 SLP082 T01940150 $

More Conditions Fewer Conditions

Pressure 29.78 in
Visibility 10.0 miles
Clouds Mostly Cloudy 2600 ft
Overcast 4100 ft
Dew Point 61 °F
Humidity 83%
Rainfall 0.31 in
Snow Depth Not available.
UV 2 out of 12
Pollen 7.60 out of 12
Air Quality Not available.
Flu Activity No Activity
METAR KCNK 251555Z AUTO 19009G17KT 10SM BKN026 OVC041 19/15 A2980 RMK AO2 SLP082 T01940150 $

More Conditions Fewer Conditions

10-Day Weather Forecast

Almanac

Astronomy

May. 25, 2015 Rise Set
Actual Time
Civil Twilight
Nautical Twilight
Astronomical Twilight
Moon
Length of Visible Light
Length of Day
Tomorrow will be .
, % of the Moon is Illuminated

Today's Extremes

State Highs State Lows

Community

WunderPhotos

Upload Photos

1,824,033 photos uploaded!

WunderBlogs® & News

Nearby

Air Quality

  Air Quality AQ Index Pollutant
Not available.

Snow Depth

Station Depth Elevation

Earthquake Activity

City Distance Mag. Time & Date
Minimum magnitude displayed is 2.5.

Coastal Water Temperatures

Place Temperature

Stations

Nearby Weather Stations

Station Location Temp. Windchill Dew Point Humidity Wind Precip. Elev Updated Type